Time;durP1;ratioP1;P1;durP2;ratioP2;P2;SDS_P1;SDS_P2;PMS_P1;PMS_P2;Temp;Humidity;BMP_temperature;BMP_pressure;BME280_temperature;BME280_humidity;BME280_pressure;Samples;Min_cycle;Max_cycle;Signal;HPM_P1;HPM_P2
2023/09/16 00:01:58;;;;;;;13.80;4.70;;;;;;;27.37;100.00;101422.50;143742;602;47004;-71
2023/09/16 00:04:35;;;;;;;10.00;4.37;;;;;;;27.31;100.00;101435.53;143731;593;46008;-71
2023/09/16 00:07:15;;;;;;;11.55;5.30;;;;;;;27.32;100.00;101433.59;143734;628;46006;-71
2023/09/16 00:09:55;;;;;;;10.07;4.55;;;;;;;27.31;100.00;101424.50;143730;617;46012;-71
2023/09/16 00:12:51;;;;;;;10.35;4.35;;;;;;;27.28;100.00;101427.84;143732;586;46006;-70
2023/09/16 00:15:33;;;;;;;9.70;4.37;;;;;;;27.27;100.00;101433.66;143728;567;47002;-70
2023/09/16 00:18:13;;;;;;;11.50;4.57;;;;;;;27.21;100.00;101430.97;143731;577;46009;-70
2023/09/16 00:20:56;;;;;;;9.13;4.32;;;;;;;27.20;100.00;101432.09;143731;653;46012;-70
2023/09/16 00:23:31;;;;;;;12.23;4.75;;;;;;;27.17;100.00;101432.66;143729;607;47006;-70
2023/09/16 00:26:10;;;;;;;7.35;4.05;;;;;;;27.15;100.00;101436.84;143730;612;46008;-70
2023/09/16 00:28:49;;;;;;;10.65;4.18;;;;;;;27.14;100.00;101436.00;143734;746;46011;-71
2023/09/16 00:31:26;;;;;;;9.52;4.28;;;;;;;27.11;100.00;101428.31;143731;573;47004;-70
2023/09/16 00:34:05;;;;;;;8.00;4.90;;;;;;;27.05;100.00;101430.31;143729;599;47004;-70
2023/09/16 00:36:41;;;;;;;9.38;4.40;;;;;;;27.05;100.00;101426.75;143730;741;47004;-69
2023/09/16 00:39:18;;;;;;;10.57;3.95;;;;;;;27.06;100.00;101440.22;143731;568;47000;-70
2023/09/16 00:41:58;;;;;;;15.20;5.68;;;;;;;27.02;100.00;101444.69;143727;688;47002;-69
2023/09/16 00:44:34;;;;;;;11.98;4.37;;;;;;;27.00;100.00;101441.44;143731;650;47004;-70
2023/09/16 00:47:13;;;;;;;15.63;4.28;;;;;;;26.98;100.00;101440.87;143728;627;47007;-70
2023/09/16 00:49:54;;;;;;;12.10;4.12;;;;;;;26.99;100.00;101438.94;143731;567;47000;-70
2023/09/16 00:52:31;;;;;;;13.73;4.70;;;;;;;26.99;100.00;101439.78;143731;739;46008;-69
2023/09/16 00:55:11;;;;;;;9.80;4.70;;;;;;;26.91;100.00;101435.72;143730;601;47004;-71
2023/09/16 00:57:50;;;;;;;16.77;4.40;;;;;;;26.95;100.00;101433.19;143729;578;47006;-70
2023/09/16 03:00:47;;;;;;;10.48;4.37;;;;;;;26.28;100.00;101475.13;143732;567;46004;-69
2023/09/16 03:03:24;;;;;;;10.30;4.20;;;;;;;26.25;100.00;101482.00;143719;573;46008;-70
2023/09/16 03:06:08;;;;;;;8.68;4.75;;;;;;;26.31;100.00;101486.38;143714;593;47010;-69
2023/09/16 03:08:44;;;;;;;14.80;5.37;;;;;;;26.33;100.00;101492.41;143714;613;47004;-69
2023/09/16 03:11:21;;;;;;;12.88;4.72;;;;;;;26.31;100.00;101485.53;143719;604;46008;-69
2023/09/16 03:14:02;;;;;;;14.05;4.07;;;;;;;26.29;100.00;101496.03;143715;712;47006;-70
2023/09/16 03:16:43;;;;;;;11.12;3.80;;;;;;;26.26;100.00;101494.66;143716;648;47004;-70
2023/09/16 03:19:19;;;;;;;15.55;4.40;;;;;;;26.28;100.00;101499.91;143713;615;47006;-69
2023/09/16 03:21:59;;;;;;;8.52;4.12;;;;;;;26.29;100.00;101498.78;143713;711;46019;-70
2023/09/16 03:24:35;;;;;;;9.35;5.05;;;;;;;26.28;100.00;101500.72;143715;654;46011;-69
2023/09/16 03:27:14;;;;;;;22.30;5.45;;;;;;;26.30;100.00;101500.41;143715;610;46006;-70
2023/09/16 03:29:53;;;;;;;20.90;5.90;;;;;;;26.24;100.00;101494.13;143712;615;47006;-69
2023/09/16 03:32:33;;;;;;;16.00;5.05;;;;;;;26.21;100.00;101491.13;143717;586;47000;-69
2023/09/16 03:35:21;;;;;;;15.75;4.85;;;;;;;26.15;100.00;101493.09;143724;671;47002;-70
2023/09/16 03:37:56;;;;;;;14.85;4.87;;;;;;;26.11;100.00;101492.00;143723;653;47005;-70
2023/09/16 03:40:35;;;;;;;16.35;4.53;;;;;;;26.13;100.00;101495.31;143726;704;46006;-71
2023/09/16 03:43:11;;;;;;;14.82;4.45;;;;;;;26.08;100.00;101498.06;143726;633;47002;-69
2023/09/16 03:45:50;;;;;;;10.98;4.97;;;;;;;26.06;100.00;101497.50;143725;751;46011;-70
2023/09/16 03:48:26;;;;;;;16.23;5.87;;;;;;;26.02;100.00;101495.34;143725;583;46012;-70
2023/09/16 03:51:06;;;;;;;13.60;4.30;;;;;;;26.04;100.00;101500.56;143722;566;46006;-70
2023/09/16 03:53:53;;;;;;;16.23;4.55;;;;;;;26.04;100.00;101501.37;143726;567;46008;-69
2023/09/16 03:56:35;;;;;;;15.35;4.60;;;;;;;26.00;100.00;101497.56;143719;588;46015;-70
2023/09/16 03:59:30;;;;;;;13.93;5.65;;;;;;;25.99;100.00;101493.16;143722;573;47008;-69
2023/09/16 04:02:23;;;;;;;13.73;5.03;;;;;;;26.01;100.00;101493.72;143712;572;46006;-69
2023/09/16 04:04:58;;;;;;;16.48;5.10;;;;;;;26.01;100.00;101492.88;143719;603;46006;-70
2023/09/16 04:07:39;;;;;;;27.17;5.57;;;;;;;25.96;100.00;101501.16;143724;725;47004;-70
2023/09/16 04:10:18;;;;;;;15.02;5.25;;;;;;;25.97;100.00;101500.03;143723;614;47004;-71
2023/09/16 04:12:55;;;;;;;20.45;4.82;;;;;;;25.93;100.00;101499.00;143723;676;46006;-70
2023/09/16 04:15:33;;;;;;;11.77;5.03;;;;;;;25.98;100.00;101497.03;143725;600;47000;-71
2023/09/16 04:18:10;;;;;;;15.70;5.35;;;;;;;25.94;100.00;101495.13;143721;578;47002;-71
2023/09/16 04:20:50;;;;;;;24.55;6.12;;;;;;;25.88;100.00;101503.41;143724;593;47004;-70
2023/09/16 04:23:47;;;;;;;;;;;;;;;;;;;;;
2023/09/16 04:26:23;;;;;;;19.83;5.82;;;;;;;25.94;100.00;101511.66;143725;709;46019;-70
2023/09/16 04:29:01;;;;;;;18.73;5.82;;;;;;;25.92;100.00;101513.84;143718;581;46922;-70
2023/09/16 04:31:43;;;;;;;12.32;5.35;;;;;;;25.89;100.00;101509.72;143723;678;47004;-70
2023/09/16 04:34:21;;;;;;;14.23;7.87;;;;;;;25.87;100.00;101517.44;143715;673;47004;-73
2023/09/16 04:36:58;;;;;;;19.40;6.20;;;;;;;25.85;100.00;101514.97;143719;653;47000;-70
2023/09/16 04:39:38;;;;;;;11.93;5.55;;;;;;;25.89;100.00;101517.97;143718;675;46008;-70
2023/09/16 04:42:17;;;;;;;14.93;6.30;;;;;;;25.94;100.00;101525.41;143722;683;47004;-70
2023/09/16 04:44:53;;;;;;;19.33;6.15;;;;;;;25.96;100.00;101525.91;143713;619;46008;-70
2023/09/16 04:47:29;;;;;;;12.48;5.15;;;;;;;25.94;100.00;101522.66;143719;664;47000;-71
2023/09/16 04:50:08;;;;;;;18.58;5.20;;;;;;;25.95;100.00;101533.38;143717;706;46017;-71
2023/09/16 04:52:44;;;;;;;12.75;6.20;;;;;;;25.97;100.00;101533.91;143714;567;47002;-70
2023/09/16 04:55:30;;;;;;;;;;;;;;;;;;;;;
2023/09/16 04:58:09;;;;;;;16.20;5.37;;;;;;;25.96;100.00;101535.03;143715;668;46008;-70
2023/09/16 05:00:48;;;;;;;16.05;5.40;;;;;;;25.96;100.00;101537.78;143713;570;46011;-70
2023/09/16 05:03:26;;;;;;;14.35;5.32;;;;;;;26.00;100.00;101540.78;143714;675;47004;-70
2023/09/16 05:06:00;;;;;;;22.23;6.12;;;;;;;26.07;100.00;101545.97;143715;594;46920;-70
2023/09/16 05:08:45;;;;;;;24.25;7.15;;;;;;;26.14;100.00;101546.50;143717;594;47000;-69
2023/09/16 05:11:21;;;;;;;25.52;6.45;;;;;;;26.19;100.00;101538.22;143719;654;47006;-70
2023/09/16 05:13:58;;;;;;;13.88;6.22;;;;;;;26.23;100.00;101544.78;143715;606;47004;-70
2023/09/16 05:16:37;;;;;;;11.25;5.82;;;;;;;26.27;100.00;101548.63;143710;576;47006;-70
2023/09/16 05:19:16;;;;;;;22.00;6.12;;;;;;;26.35;100.00;101552.72;143718;580;47000;-70
2023/09/16 05:21:52;;;;;;;15.63;6.10;;;;;;;26.39;100.00;101556.53;143716;620;46009;-70
2023/09/16 05:24:37;;;;;;;18.15;6.28;;;;;;;26.38;100.00;101554.91;143724;697;47004;-70
2023/09/16 05:27:17;;;;;;;19.75;5.85;;;;;;;26.45;100.00;101551.81;143724;730;46015;-70
2023/09/16 05:29:54;;;;;;;17.35;6.72;;;;;;;26.52;100.00;101568.03;143728;591;46008;-70
2023/09/16 05:32:33;;;;;;;23.05;6.43;;;;;;;26.60;100.00;101556.41;143725;587;47010;-71
2023/09/16 05:35:13;;;;;;;22.70;6.80;;;;;;;26.60;100.00;101561.91;143725;721;47006;-70
2023/09/16 05:37:50;;;;;;;15.60;6.40;;;;;;;26.68;100.00;101571.50;143723;604;46009;-70
2023/09/16 05:40:32;;;;;;;23.80;7.07;;;;;;;26.81;100.00;101564.53;143727;640;47002;-71
2023/09/16 05:43:19;;;;;;;14.15;6.22;;;;;;;26.87;100.00;101572.47;143726;569;46011;-70
2023/09/16 05:46:15;;;;;;;12.25;5.82;;;;;;;27.00;100.00;101573.75;143725;603;46010;-71
2023/09/16 05:49:13;;;;;;;19.33;7.07;;;;;;;27.10;100.00;101578.31;143717;590;47008;-70
2023/09/16 05:51:55;;;;;;;18.92;5.78;;;;;;;27.15;100.00;101570.00;143726;699;47003;-70
2023/09/16 05:54:34;;;;;;;16.12;5.40;;;;;;;27.24;100.00;101579.31;143725;580;46010;-71
2023/09/16 05:57:20;;;;;;;16.70;5.47;;;;;;;27.29;100.00;101567.41;143724;606;47006;-70
2023/09/16 06:00:07;;;;;;;14.52;5.43;;;;;;;27.36;100.00;101562.34;143723;621;46012;-71
2023/09/16 06:02:43;;;;;;;10.82;5.22;;;;;;;27.41;100.00;101567.00;143729;606;46004;-69
2023/09/16 06:05:21;;;;;;;16.08;5.10;;;;;;;27.44;100.00;101563.66;143726;579;46010;-70
2023/09/16 06:07:56;;;;;;;13.52;4.95;;;;;;;27.52;100.00;101567.75;143721;593;47004;-69
2023/09/16 06:10:33;;;;;;;16.95;5.75;;;;;;;27.58;100.00;101563.00;143724;618;47008;-70
2023/09/16 06:13:14;;;;;;;12.23;5.28;;;;;;;27.64;100.00;101570.06;143721;570;47002;-69
2023/09/16 06:15:50;;;;;;;20.50;5.68;;;;;;;27.71;100.00;101572.50;143721;578;46013;-69
2023/09/16 06:18:29;;;;;;;15.40;5.35;;;;;;;27.77;100.00;101568.53;143724;567;46010;-70
2023/09/16 06:21:06;;;;;;;21.70;5.68;;;;;;;27.81;100.00;101572.34;143725;677;46009;-70
2023/09/16 06:23:46;;;;;;;12.80;5.72;;;;;;;27.89;100.00;101577.22;143726;611;47002;-70
2023/09/16 06:26:25;;;;;;;17.30;7.03;;;;;;;27.94;100.00;101576.34;143720;600;46012;-71
2023/09/16 06:29:01;;;;;;;18.23;6.30;;;;;;;27.97;100.00;101584.03;143727;603;46006;-70
2023/09/16 06:31:40;;;;;;;23.67;7.07;;;;;;;28.07;100.00;101583.06;143727;569;46008;-72
2023/09/16 06:34:16;;;;;;;21.12;6.30;;;;;;;28.16;100.00;101591.53;143728;702;47008;-71
2023/09/16 06:37:02;;;;;;;24.25;6.80;;;;;;;28.22;100.00;101593.94;143727;607;46011;-72
2023/09/16 06:39:41;;;;;;;15.93;6.50;;;;;;;28.29;100.00;101602.66;143726;655;46006;-72
2023/09/16 06:42:20;;;;;;;21.48;6.53;;;;;;;28.39;100.00;101600.91;143726;604;46015;-74
2023/09/16 06:44:55;;;;;;;17.55;6.55;;;;;;;28.47;100.00;101599.41;143729;608;46012;-72
2023/09/16 06:47:37;;;;;;;16.60;6.03;;;;;;;28.54;100.00;101597.06;143719;588;46010;-72
2023/09/16 06:50:12;;;;;;;26.60;6.87;;;;;;;28.54;100.00;101602.59;143713;607;46011;-71
2023/09/16 06:52:49;;;;;;;20.08;6.65;;;;;;;28.64;100.00;101605.22;143713;567;47008;-72
2023/09/16 06:55:28;;;;;;;19.70;5.82;;;;;;;28.73;100.00;101603.44;143715;574;47012;-72
2023/09/16 06:58:06;;;;;;;18.12;6.45;;;;;;;28.84;100.00;101615.16;143712;580;46012;-72
2023/09/16 07:00:45;;;;;;;12.05;5.68;;;;;;;28.85;100.00;101604.94;143714;591;47004;-72
2023/09/16 07:03:23;;;;;;;12.75;6.20;;;;;;;28.93;100.00;101609.75;143712;589;46008;-70
2023/09/16 07:06:00;;;;;;;25.42;6.75;;;;;;;29.01;100.00;101613.78;143720;587;46013;-69
2023/09/16 07:08:42;;;;;;;15.85;6.28;;;;;;;29.05;100.00;101618.38;143718;601;46024;-70
2023/09/16 07:11:21;;;;;;;22.92;6.28;;;;;;;29.12;100.00;101617.19;143722;608;47006;-71
2023/09/16 07:13:57;;;;;;;15.93;5.37;;;;;;;29.18;100.00;101619.56;143717;586;47006;-71
2023/09/16 07:16:40;;;;;;;12.18;5.00;;;;;;;29.28;100.00;101617.75;143723;601;47002;-71
2023/09/16 07:19:19;;;;;;;14.77;5.35;;;;;;;29.20;100.00;101624.81;143720;576;46012;-72
2023/09/16 07:21:56;;;;;;;18.02;6.20;;;;;;;29.24;100.00;101619.47;143721;629;46011;-72
2023/09/16 07:24:32;;;;;;;15.38;5.70;;;;;;;29.36;100.00;101633.66;143719;574;47008;-72
2023/09/16 07:27:11;;;;;;;16.85;6.07;;;;;;;29.55;100.00;101624.47;143718;576;47008;-71
2023/09/16 07:29:48;;;;;;;13.50;5.32;;;;;;;29.68;100.00;101631.16;143719;700;46010;-72
2023/09/16 07:32:28;;;;;;;18.83;6.00;;;;;;;29.79;100.00;101632.56;143722;595;46006;-71
2023/09/16 07:35:04;;;;;;;16.98;7.18;;;;;;;29.69;100.00;101638.31;143717;664;46008;-72
2023/09/16 07:37:43;;;;;;;15.95;6.43;;;;;;;29.83;100.00;101639.12;143722;582;46012;-70
2023/09/16 07:40:22;;;;;;;19.17;6.28;;;;;;;29.78;100.00;101639.22;143716;736;46023;-72
2023/09/16 07:42:58;;;;;;;15.45;5.95;;;;;;;29.77;100.00;101646.72;143725;687;46010;-71
2023/09/16 07:45:32;;;;;;;19.08;6.40;;;;;;;29.89;100.00;101646.22;143718;573;47008;-71
2023/09/16 07:48:09;;;;;;;14.30;5.37;;;;;;;29.97;100.00;101641.94;143720;594;47002;-72
2023/09/16 07:50:48;;;;;;;16.52;6.40;;;;;;;29.94;100.00;101643.34;143719;567;46012;-71
2023/09/16 07:53:27;;;;;;;14.75;6.00;;;;;;;29.93;100.00;101638.91;143723;584;47006;-71
2023/09/16 07:56:03;;;;;;;15.73;5.62;;;;;;;29.79;100.00;101651.94;143720;597;46012;-70
2023/09/16 07:58:39;;;;;;;15.20;6.15;;;;;;;29.65;100.00;101649.19;143722;602;47002;-71
2023/09/16 08:01:17;;;;;;;18.95;4.90;;;;;;;29.63;100.00;101655.03;143723;606;46012;-71
2023/09/16 08:03:53;;;;;;;15.95;6.00;;;;;;;29.93;100.00;101643.66;143725;584;46006;-71
2023/09/16 08:06:30;;;;;;;16.02;5.50;;;;;;;29.99;100.00;101644.38;143726;586;46009;-70
2023/09/16 08:09:09;;;;;;;22.17;5.87;;;;;;;30.00;100.00;101646.87;143727;591;47002;-71
2023/09/16 08:11:48;;;;;;;15.52;5.53;;;;;;;30.10;100.00;101652.19;143725;580;46012;-72
2023/09/16 08:14:24;;;;;;;13.75;4.97;;;;;;;30.36;100.00;101651.63;143726;577;46011;-72
2023/09/16 08:17:02;;;;;;;16.42;5.12;;;;;;;30.32;100.00;101649.78;143725;581;47008;-72
2023/09/16 08:19:41;;;;;;;15.70;4.78;;;;;;;30.42;100.00;101648.75;143726;589;47002;-72
2023/09/16 08:22:17;;;;;;;21.60;5.40;;;;;;;30.22;100.00;101646.13;143724;579;46013;-73
2023/09/16 08:24:56;;;;;;;14.50;4.97;;;;;;;30.38;100.00;101635.50;143725;594;46010;-72
2023/09/16 08:27:33;;;;;;;13.88;5.10;;;;;;;30.53;100.00;101641.84;143724;604;46009;-71
2023/09/16 08:30:12;;;;;;;12.00;4.45;;;;;;;30.63;100.00;101636.09;143727;638;46012;-71
2023/09/16 08:32:51;;;;;;;12.70;5.12;;;;;;;30.72;100.00;101644.47;143726;591;46012;-71
2023/09/16 08:35:28;;;;;;;12.85;4.30;;;;;;;30.87;100.00;101650.78;143725;605;46010;-72
2023/09/16 08:38:08;;;;;;;9.93;4.85;;;;;;;30.89;100.00;101640.19;143724;584;46008;-71
2023/09/16 08:40:43;;;;;;;17.27;5.55;;;;;;;31.11;100.00;101640.19;143727;592;47008;-71
2023/09/16 08:43:43;;;;;;;14.30;4.45;;;;;;;30.92;100.00;101639.56;143723;570;46012;-71
2023/09/16 08:46:19;;;;;;;13.10;4.30;;;;;;;30.98;100.00;101638.28;143724;595;47006;-72
2023/09/16 08:49:01;;;;;;;9.68;4.15;;;;;;;30.86;100.00;101644.41;143725;656;47004;-71
2023/09/16 08:51:51;;;;;;;19.30;5.55;;;;;;;30.93;100.00;101642.00;143728;570;46012;-72
2023/09/16 08:54:33;;;;;;;16.85;4.20;;;;;;;31.21;100.00;101643.84;143718;580;46012;-72
2023/09/16 08:57:12;;;;;;;15.68;4.70;;;;;;;31.05;100.00;101647.00;143723;566;47006;-70
2023/09/16 08:59:49;;;;;;;13.90;4.07;;;;;;;31.29;100.00;101654.19;143727;635;46008;-71
2023/09/16 09:02:31;;;;;;;15.95;5.07;;;;;;;31.20;100.00;101654.16;143725;572;47002;-70
2023/09/16 09:05:09;;;;;;;13.13;4.57;;;;;;;31.36;100.00;101654.53;143726;616;46012;-71
2023/09/16 09:07:47;;;;;;;11.25;4.47;;;;;;;31.42;100.00;101653.28;143727;626;46006;-70
2023/09/16 09:10:27;;;;;;;9.13;3.92;;;;;;;31.61;100.00;101657.78;143725;615;47008;-69
2023/09/16 09:13:03;;;;;;;14.68;5.07;;;;;;;31.58;100.00;101655.62;143727;623;47002;-70
2023/09/16 09:15:43;;;;;;;17.90;4.50;;;;;;;31.21;100.00;101657.72;143726;588;46012;-70
2023/09/16 09:18:35;;;;;;;16.27;4.97;;;;;;;31.20;100.00;101648.59;143725;578;47006;-70
2023/09/16 09:21:14;;;;;;;14.63;4.70;;;;;;;31.14;100.00;101647.06;143720;668;46009;-70
2023/09/16 09:24:01;;;;;;;11.70;4.12;;;;;;;31.44;100.00;101639.91;143720;624;47004;-69
2023/09/16 09:26:42;;;;;;;16.92;5.53;;;;;;;31.72;100.00;101639.72;143719;630;46012;-70
2023/09/16 09:29:20;;;;;;;13.90;4.72;;;;;;;31.98;100.00;101635.38;143724;619;47006;-70
2023/09/16 09:31:57;;;;;;;10.48;4.55;;;;;;;32.05;100.00;101628.19;143725;616;46008;-70
2023/09/16 09:34:36;;;;;;;10.20;3.65;;;;;;;32.24;100.00;101640.97;143725;594;47002;-70
2023/09/16 09:37:20;;;;;;;11.07;4.55;;;;;;;32.34;100.00;101631.53;143726;579;46010;-70
2023/09/16 09:40:12;;;;;;;13.20;4.90;;;;;;;32.33;100.00;101639.06;143725;575;47006;-73
2023/09/16 09:42:53;;;;;;;13.77;4.28;;;;;;;32.26;100.00;101629.56;143725;587;46009;-70
2023/09/16 09:45:33;;;;;;;19.85;4.37;;;;;;;32.15;100.00;101638.19;143725;567;47002;-70
2023/09/16 09:48:10;;;;;;;12.80;4.40;;;;;;;32.19;100.00;101636.41;143724;613;46012;-69
2023/09/16 09:50:49;;;;;;;13.55;4.37;;;;;;;32.43;100.00;101629.59;143724;579;47006;-70
2023/09/16 09:53:24;;;;;;;17.30;4.57;;;;;;;32.53;100.00;101625.69;143724;654;46006;-70
2023/09/16 09:56:01;;;;;;;11.23;4.28;;;;;;;32.49;100.00;101624.69;143724;703;47002;-70
2023/09/16 09:58:40;;;;;;;14.57;3.95;;;;;;;32.50;96.03;101629.91;143723;567;47004;-70
2023/09/16 10:01:16;;;;;;;17.05;4.70;;;;;;;32.76;94.42;101619.91;143727;603;47006;-70
2023/09/16 10:03:56;;;;;;;14.25;4.28;;;;;;;32.66;92.88;101629.41;143732;590;46008;-70
2023/09/16 10:06:38;;;;;;;20.58;4.03;;;;;;;32.55;85.10;101617.81;143733;690;47002;-70
2023/09/16 10:09:15;;;;;;;14.07;4.53;;;;;;;32.42;82.43;101621.56;143729;596;46012;-70
2023/09/16 10:11:55;;;;;;;9.32;3.58;;;;;;;32.50;86.69;101615.19;143731;567;46007;-70
2023/09/16 10:14:34;;;;;;;12.90;4.43;;;;;;;32.61;86.74;101619.28;143731;583;46008;-70
2023/09/16 10:17:09;;;;;;;18.15;4.53;;;;;;;32.69;85.55;101617.63;143736;629;47004;-71
2023/09/16 10:19:46;;;;;;;12.57;4.12;;;;;;;32.72;83.56;101614.19;143731;569;46011;-70
2023/09/16 10:22:25;;;;;;;12.50;5.05;;;;;;;32.93;87.20;101602.41;143731;590;46010;-70
2023/09/16 10:25:02;;;;;;;13.25;4.68;;;;;;;32.92;80.92;101612.72;143732;594;46008;-70
2023/09/16 10:27:53;;;;;;;16.65;5.90;;;;;;;32.94;82.69;101610.44;143734;600;46009;-70
2023/09/16 10:30:32;;;;;;;16.27;4.72;;;;;;;32.96;83.19;101610.13;143730;569;46012;-70
2023/09/16 10:33:15;;;;;;;17.70;5.07;;;;;;;32.76;84.64;101608.78;143730;566;47006;-71
2023/09/16 10:35:55;;;;;;;13.50;4.70;;;;;;;32.94;86.78;101604.84;143732;569;46009;-71
2023/09/16 10:38:32;;;;;;;17.58;5.30;;;;;;;32.99;83.05;101617.81;143732;573;47002;-72
2023/09/16 10:41:12;;;;;;;10.18;3.78;;;;;;;32.98;85.18;101613.37;143731;584;46012;-70
2023/09/16 10:43:52;;;;;;;17.98;4.40;;;;;;;32.98;85.50;101607.00;143731;586;47006;-70
2023/09/16 10:46:30;;;;;;;12.30;4.05;;;;;;;33.07;84.89;101605.81;143729;573;47008;-71
2023/09/16 10:49:12;;;;;;;13.62;3.70;;;;;;;32.95;85.04;101602.91;143734;567;47004;-71
2023/09/16 10:51:50;;;;;;;16.27;4.30;;;;;;;33.05;85.77;101604.53;143732;606;46010;-69
2023/09/16 10:54:33;;;;;;;12.75;3.78;;;;;;;33.08;80.85;101601.88;143731;572;47006;-70
2023/09/16 10:57:27;;;;;;;10.13;5.15;;;;;;;32.78;83.85;101610.13;143730;723;47008;-70
2023/09/16 11:00:10;;;;;;;13.95;4.25;;;;;;;32.84;86.58;101602.44;143727;582;47002;-70
2023/09/16 11:02:51;;;;;;;10.13;4.00;;;;;;;33.23;91.56;101596.94;143720;578;47004;-70
2023/09/16 11:05:30;;;;;;;6.28;4.00;;;;;;;33.25;88.98;101606.59;143722;613;47007;-69
2023/09/16 11:08:06;;;;;;;12.80;3.62;;;;;;;33.44;91.58;101594.28;143718;584;46008;-70
2023/09/16 11:10:45;;;;;;;13.90;4.07;;;;;;;33.53;83.12;101597.00;143719;618;47002;-70
2023/09/16 11:13:22;;;;;;;14.13;3.58;;;;;;;33.45;86.87;101598.66;143718;591;47010;-70
2023/09/16 11:16:05;;;;;;;9.65;4.03;;;;;;;33.17;88.62;101595.50;143722;624;47004;-70
2023/09/16 11:18:48;;;;;;;9.93;4.50;;;;;;;32.98;88.87;101596.69;143719;635;46006;-70
2023/09/16 11:21:27;;;;;;;11.85;3.90;;;;;;;32.96;81.70;101582.28;143719;691;47000;-71
2023/09/16 11:24:04;;;;;;;11.07;3.83;;;;;;;32.94;86.55;101590.94;143718;593;46008;-71
2023/09/16 11:26:51;;;;;;;15.25;3.85;;;;;;;32.66;91.11;101582.97;143723;582;46004;-70
2023/09/16 11:29:34;;;;;;;7.75;3.30;;;;;;;32.48;85.38;101582.16;143713;592;47006;-70
2023/09/16 11:32:21;;;;;;;13.30;4.27;;;;;;;32.46;94.92;101578.06;143722;734;47000;-69
2023/09/16 11:35:06;;;;;;;10.85;4.20;;;;;;;32.88;90.84;101586.72;143719;639;46009;-69
2023/09/16 11:37:43;;;;;;;9.52;4.05;;;;;;;32.82;83.25;101595.59;143723;596;47004;-72
2023/09/16 11:40:22;;;;;;;13.48;4.15;;;;;;;32.78;85.30;101593.41;143715;580;47005;-71
2023/09/16 11:43:00;;;;;;;17.37;4.35;;;;;;;32.88;89.83;101588.69;143722;662;47000;-71
2023/09/16 11:45:39;;;;;;;8.25;4.07;;;;;;;32.88;91.01;101591.47;143719;592;46010;-71
2023/09/16 11:48:19;;;;;;;11.75;3.78;;;;;;;32.95;92.51;101584.25;143723;575;47004;-72
2023/09/16 11:51:10;;;;;;;12.43;3.50;;;;;;;32.99;98.34;101586.34;143714;573;47006;-71
2023/09/16 11:53:47;;;;;;;11.82;4.15;;;;;;;32.95;100.00;101595.38;143720;588;47000;-72
2023/09/16 11:56:31;;;;;;;8.63;4.30;;;;;;;32.94;100.00;101599.28;143720;591;47008;-70
2023/09/16 11:59:13;;;;;;;8.52;3.50;;;;;;;33.02;99.90;101588.47;143716;595;47002;-71
2023/09/16 12:01:52;;;;;;;10.18;3.72;;;;;;;32.90;100.00;101580.81;143718;583;46006;-71
2023/09/16 12:04:34;;;;;;;13.02;4.55;;;;;;;32.83;100.00;101580.53;143720;616;47000;-71
2023/09/16 12:07:19;;;;;;;8.32;3.60;;;;;;;32.74;100.00;101580.50;143715;580;46010;-72
2023/09/16 12:09:58;;;;;;;7.55;3.80;;;;;;;32.60;100.00;101584.28;143723;589;46008;-71
2023/09/16 12:12:46;;;;;;;9.60;3.83;;;;;;;32.71;100.00;101575.59;143715;635;47006;-73
2023/09/16 12:15:25;;;;;;;10.50;4.12;;;;;;;32.78;100.00;101568.38;143721;614;46006;-72
2023/09/16 12:18:05;;;;;;;8.65;4.50;;;;;;;33.00;100.00;101571.31;143712;574;47008;-71
2023/09/16 12:20:46;;;;;;;10.23;4.15;;;;;;;33.00;100.00;101574.09;143713;601;47004;-71
2023/09/16 12:23:26;;;;;;;14.48;3.85;;;;;;;32.74;100.00;101563.81;143716;616;46014;-72
2023/09/16 12:26:03;;;;;;;6.55;3.35;;;;;;;32.75;98.03;101563.47;143716;637;46009;-71
2023/09/16 12:28:39;;;;;;;11.05;4.80;;;;;;;32.82;100.00;101553.84;143717;607;46010;-71
2023/09/16 12:31:21;;;;;;;7.72;3.53;;;;;;;32.94;97.89;101556.75;143712;572;46008;-71
2023/09/16 12:33:59;;;;;;;9.73;3.55;;;;;;;33.05;92.01;101548.87;143719;615;46002;-71
2023/09/16 12:36:33;;;;;;;7.60;3.85;;;;;;;32.74;88.75;101550.72;143718;635;47000;-72
2023/09/16 12:39:12;;;;;;;12.45;3.95;;;;;;;32.70;88.54;101552.50;143718;619;46008;-72
2023/09/16 12:41:50;;;;;;;8.45;3.78;;;;;;;32.72;90.85;101547.44;143716;595;47003;-72
2023/09/16 12:44:27;;;;;;;15.20;3.72;;;;;;;32.75;95.86;101534.81;143718;588;46018;-71
2023/09/16 12:47:05;;;;;;;11.73;4.15;;;;;;;32.80;94.86;101538.28;143723;583;47000;-72
2023/09/16 12:49:44;;;;;;;10.68;3.12;;;;;;;32.68;90.93;101535.34;143724;574;46011;-71
2023/09/16 12:52:20;;;;;;;11.32;4.32;;;;;;;32.70;85.73;101535.03;143723;589;46008;-71
2023/09/16 12:55:11;;;;;;;10.38;3.75;;;;;;;32.61;85.81;101537.81;143717;589;46006;-70
2023/09/16 12:57:49;;;;;;;10.43;3.40;;;;;;;32.51;86.52;101539.78;143718;592;47000;-71
2023/09/16 13:00:35;;;;;;;13.10;3.75;;;;;;;32.63;79.76;101528.00;143720;606;47006;-71
2023/09/16 13:03:11;;;;;;;12.45;3.85;;;;;;;32.59;70.09;101529.78;143725;604;47005;-71
2023/09/16 13:05:53;;;;;;;13.07;4.12;;;;;;;32.51;70.78;101525.06;143724;602;47006;-71
2023/09/16 13:08:29;;;;;;;11.48;4.00;;;;;;;32.56;79.92;101515.75;143721;577;47000;-71
2023/09/16 13:11:05;;;;;;;8.65;3.75;;;;;;;32.66;87.51;101523.72;143715;595;47010;-73
2023/09/16 13:13:42;;;;;;;7.95;3.42;;;;;;;32.70;89.80;101516.34;143721;597;47004;-70
2023/09/16 13:16:20;;;;;;;11.05;4.15;;;;;;;32.71;90.03;101519.97;143717;575;47006;-71
2023/09/16 13:18:56;;;;;;;10.85;4.05;;;;;;;32.61;85.58;101513.59;143717;657;47007;-71
2023/09/16 13:21:38;;;;;;;10.00;3.47;;;;;;;32.64;87.98;101512.94;143717;595;46010;-71
2023/09/16 13:24:14;;;;;;;6.68;4.07;;;;;;;32.64;87.07;101512.13;143724;625;47004;-71
2023/09/16 13:27:00;;;;;;;11.52;3.67;;;;;;;32.63;81.12;101511.31;143717;574;47007;-71
2023/09/16 13:29:39;;;;;;;7.65;3.67;;;;;;;32.55;78.60;101514.09;143719;633;47006;-72
2023/09/16 13:32:16;;;;;;;7.78;3.95;;;;;;;32.60;78.79;101502.81;143717;566;46017;-70
2023/09/16 13:34:53;;;;;;;13.23;4.10;;;;;;;32.54;77.69;101502.19;143721;600;46008;-71
2023/09/16 13:37:30;;;;;;;8.27;3.70;;;;;;;32.57;77.69;101501.50;143719;581;46006;-71
2023/09/16 13:40:14;;;;;;;11.20;4.05;;;;;;;32.66;78.12;101502.31;143718;569;47006;-70
2023/09/16 13:42:50;;;;;;;11.88;3.75;;;;;;;32.68;75.10;101490.84;143717;582;46010;-70
2023/09/16 13:45:26;;;;;;;10.90;4.32;;;;;;;32.61;77.39;101494.13;143721;572;47004;-69
2023/09/16 13:48:36;;;;;;;14.90;3.87;;;;;;;32.64;79.66;101492.66;143718;637;46007;-70
2023/09/16 13:51:17;;;;;;;12.35;4.07;;;;;;;32.63;81.94;101488.25;143721;588;47008;-71
2023/09/16 13:53:57;;;;;;;10.23;4.32;;;;;;;32.62;82.02;101489.41;143723;607;46010;-71
2023/09/16 13:56:37;;;;;;;9.25;3.45;;;;;;;32.68;86.24;101490.03;143723;590;47005;-71
2023/09/16 13:59:14;;;;;;;11.05;3.70;;;;;;;32.60;83.50;101486.94;143723;586;46006;-70
2023/09/16 14:01:53;;;;;;;10.95;4.22;;;;;;;32.50;88.04;101478.94;143726;614;47000;-69
2023/09/16 14:04:27;;;;;;;8.98;3.72;;;;;;;32.42;86.23;101479.78;143723;617;46008;-70
2023/09/16 14:07:04;;;;;;;6.85;3.95;;;;;;;32.33;87.45;101477.00;143723;584;47004;-70
2023/09/16 14:09:43;;;;;;;10.40;3.75;;;;;;;32.41;89.55;101467.84;143725;589;46006;-70
2023/09/16 14:12:20;;;;;;;9.35;4.30;;;;;;;32.51;88.62;101469.47;143724;569;47002;-71